sensor_id;sensor_type;location;lat;lon;timestamp;pressure;altitude;pressure_sealevel;temperature;humidity
81162;BME280;70638;-33.792;151.032;2024-02-21T00:02:10;101085.68;;;23.95;100.00
81162;BME280;70638;-33.792;151.032;2024-02-21T00:04:43;101082.52;;;24.22;100.00
81162;BME280;70638;-33.792;151.032;2024-02-21T00:07:09;101078.50;;;24.34;100.00
81162;BME280;70638;-33.792;151.032;2024-02-21T00:09:40;101080.77;;;24.33;100.00
81162;BME280;70638;-33.792;151.032;2024-02-21T00:12:18;101080.11;;;24.20;100.00
81162;BME280;70638;-33.792;151.032;2024-02-21T00:14:41;101078.03;;;24.23;100.00
81162;BME280;70638;-33.792;151.032;2024-02-21T00:17:11;101076.38;;;24.13;100.00
81162;BME280;70638;-33.792;151.032;2024-02-21T00:19:41;101076.17;;;24.21;100.00
81162;BME280;70638;-33.792;151.032;2024-02-21T00:22:12;101074.50;;;24.23;100.00
81162;BME280;70638;-33.792;151.032;2024-02-21T00:24:42;101074.33;;;24.26;100.00
81162;BME280;70638;-33.792;151.032;2024-02-21T00:27:12;101071.70;;;24.31;100.00
81162;BME280;70638;-33.792;151.032;2024-02-21T00:29:45;101062.70;;;24.44;100.00
81162;BME280;70638;-33.792;151.032;2024-02-21T00:32:13;101057.81;;;24.75;100.00
81162;BME280;70638;-33.792;151.032;2024-02-21T00:34:43;101054.12;;;24.96;100.00
81162;BME280;70638;-33.792;151.032;2024-02-21T00:37:13;101055.06;;;25.02;100.00
81162;BME280;70638;-33.792;151.032;2024-02-21T00:39:45;101055.86;;;24.90;100.00
81162;BME280;70638;-33.792;151.032;2024-02-21T00:42:14;101050.34;;;24.57;100.00
81162;BME280;70638;-33.792;151.032;2024-02-21T00:44:44;101050.90;;;24.55;100.00
81162;BME280;70638;-33.792;151.032;2024-02-21T00:47:14;101045.31;;;24.32;100.00
81162;BME280;70638;-33.792;151.032;2024-02-21T00:49:45;101041.61;;;24.16;100.00
81162;BME280;70638;-33.792;151.032;2024-02-21T00:52:15;101036.73;;;24.45;100.00
81162;BME280;70638;-33.792;151.032;2024-02-21T00:54:45;101030.08;;;24.62;100.00
81162;BME280;70638;-33.792;151.032;2024-02-21T00:57:15;101035.72;;;24.54;100.00
81162;BME280;70638;-33.792;151.032;2024-02-21T00:59:46;101037.28;;;24.62;100.00
81162;BME280;70638;-33.792;151.032;2024-02-21T01:02:16;101033.55;;;24.67;100.00
81162;BME280;70638;-33.792;151.032;2024-02-21T01:04:46;101036.84;;;24.59;100.00
81162;BME280;70638;-33.792;151.032;2024-02-21T01:07:20;101034.15;;;24.58;100.00
81162;BME280;70638;-33.792;151.032;2024-02-21T01:09:51;101025.55;;;24.90;100.00
81162;BME280;70638;-33.792;151.032;2024-02-21T01:12:17;101020.22;;;25.13;100.00
81162;BME280;70638;-33.792;151.032;2024-02-21T01:14:52;101018.25;;;25.33;100.00
81162;BME280;70638;-33.792;151.032;2024-02-21T01:17:18;101019.52;;;25.56;100.00
81162;BME280;70638;-33.792;151.032;2024-02-21T01:19:48;101016.56;;;25.77;100.00
81162;BME280;70638;-33.792;151.032;2024-02-21T01:22:19;101014.05;;;25.99;100.00
81162;BME280;70638;-33.792;151.032;2024-02-21T01:24:49;101009.36;;;25.97;100.00
81162;BME280;70638;-33.792;151.032;2024-02-21T01:27:19;101011.73;;;25.99;100.00
81162;BME280;70638;-33.792;151.032;2024-02-21T01:29:52;101010.55;;;25.98;100.00
81162;BME280;70638;-33.792;151.032;2024-02-21T01:32:20;101015.78;;;25.83;100.00
81162;BME280;70638;-33.792;151.032;2024-02-21T01:34:51;101016.45;;;25.51;100.00
81162;BME280;70638;-33.792;151.032;2024-02-21T01:37:23;101014.04;;;25.33;100.00
81162;BME280;70638;-33.792;151.032;2024-02-21T01:39:52;101011.98;;;25.09;100.00
81162;BME280;70638;-33.792;151.032;2024-02-21T01:42:22;101010.70;;;24.89;100.00
81162;BME280;70638;-33.792;151.032;2024-02-21T01:44:53;101009.51;;;24.77;100.00
81162;BME280;70638;-33.792;151.032;2024-02-21T01:47:24;101017.31;;;24.81;100.00
81162;BME280;70638;-33.792;151.032;2024-02-21T01:49:54;101014.19;;;24.68;100.00
81162;BME280;70638;-33.792;151.032;2024-02-21T01:52:25;101014.95;;;24.82;100.00
81162;BME280;70638;-33.792;151.032;2024-02-21T01:54:55;101011.47;;;24.90;100.00
81162;BME280;70638;-33.792;151.032;2024-02-21T01:57:26;101014.55;;;24.87;100.00
81162;BME280;70638;-33.792;151.032;2024-02-21T01:59:56;101010.55;;;24.91;100.00
81162;BME280;70638;-33.792;151.032;2024-02-21T02:02:27;101009.88;;;24.96;100.00
81162;BME280;70638;-33.792;151.032;2024-02-21T02:04:58;101012.38;;;25.04;100.00
81162;BME280;70638;-33.792;151.032;2024-02-21T02:07:29;101010.09;;;25.12;100.00
81162;BME280;70638;-33.792;151.032;2024-02-21T02:10:02;101008.66;;;25.21;100.00
81162;BME280;70638;-33.792;151.032;2024-02-21T02:12:29;101009.12;;;25.36;100.00
81162;BME280;70638;-33.792;151.032;2024-02-21T02:15:03;101008.38;;;25.24;100.00
81162;BME280;70638;-33.792;151.032;2024-02-21T02:17:30;101009.61;;;25.45;100.00
81162;BME280;70638;-33.792;151.032;2024-02-21T02:20:01;101010.14;;;25.48;100.00
81162;BME280;70638;-33.792;151.032;2024-02-21T02:22:32;101007.54;;;25.39;100.00
81162;BME280;70638;-33.792;151.032;2024-02-21T02:25:02;101004.78;;;25.50;100.00
81162;BME280;70638;-33.792;151.032;2024-02-21T02:27:32;100999.32;;;25.70;100.00
81162;BME280;70638;-33.792;151.032;2024-02-21T02:30:02;100998.87;;;25.60;100.00
81162;BME280;70638;-33.792;151.032;2024-02-21T02:32:32;101002.31;;;25.47;100.00
81162;BME280;70638;-33.792;151.032;2024-02-21T02:35:03;100993.98;;;25.30;100.00
81162;BME280;70638;-33.792;151.032;2024-02-21T02:37:33;100990.08;;;25.25;100.00
81162;BME280;70638;-33.792;151.032;2024-02-21T02:40:06;100986.84;;;25.41;100.00
81162;BME280;70638;-33.792;151.032;2024-02-21T02:42:35;100979.45;;;25.64;100.00
81162;BME280;70638;-33.792;151.032;2024-02-21T02:45:05;100979.81;;;25.85;100.00
81162;BME280;70638;-33.792;151.032;2024-02-21T02:47:44;100968.22;;;25.96;100.00
81162;BME280;70638;-33.792;151.032;2024-02-21T02:50:16;100967.03;;;26.03;100.00
81162;BME280;70638;-33.792;151.032;2024-02-21T02:52:40;100961.50;;;25.91;100.00
81162;BME280;70638;-33.792;151.032;2024-02-21T02:55:07;100956.66;;;25.76;100.00
81162;BME280;70638;-33.792;151.032;2024-02-21T02:57:37;100955.78;;;25.89;100.00
81162;BME280;70638;-33.792;151.032;2024-02-21T03:00:09;100953.02;;;25.85;100.00
81162;BME280;70638;-33.792;151.032;2024-02-21T03:02:39;100948.70;;;25.87;100.00
81162;BME280;70638;-33.792;151.032;2024-02-21T03:05:15;100949.23;;;25.68;100.00
81162;BME280;70638;-33.792;151.032;2024-02-21T03:07:50;100948.70;;;25.90;100.00
81162;BME280;70638;-33.792;151.032;2024-02-21T03:10:09;100946.67;;;26.03;100.00
81162;BME280;70638;-33.792;151.032;2024-02-21T03:12:40;100937.16;;;25.92;100.00
81162;BME280;70638;-33.792;151.032;2024-02-21T03:15:10;100938.56;;;25.99;100.00
81162;BME280;70638;-33.792;151.032;2024-02-21T03:17:41;100937.16;;;25.97;100.00
81162;BME280;70638;-33.792;151.032;2024-02-21T03:20:12;100943.23;;;25.83;100.00
81162;BME280;70638;-33.792;151.032;2024-02-21T03:22:41;100939.59;;;25.81;100.00
81162;BME280;70638;-33.792;151.032;2024-02-21T03:25:12;100938.08;;;25.86;100.00
81162;BME280;70638;-33.792;151.032;2024-02-21T03:27:42;100933.42;;;25.91;100.00
81162;BME280;70638;-33.792;151.032;2024-02-21T03:30:12;100935.86;;;26.16;100.00
81162;BME280;70638;-33.792;151.032;2024-02-21T03:32:43;100933.21;;;25.79;100.00
81162;BME280;70638;-33.792;151.032;2024-02-21T03:35:14;100935.34;;;25.91;100.00
81162;BME280;70638;-33.792;151.032;2024-02-21T03:37:45;100938.50;;;26.03;100.00
81162;BME280;70638;-33.792;151.032;2024-02-21T03:40:14;100929.33;;;26.07;100.00
81162;BME280;70638;-33.792;151.032;2024-02-21T03:42:44;100936.00;;;25.96;100.00
81162;BME280;70638;-33.792;151.032;2024-02-21T03:45:15;100933.50;;;25.83;100.00
81162;BME280;70638;-33.792;151.032;2024-02-21T03:47:45;100926.00;;;26.01;100.00
81162;BME280;70638;-33.792;151.032;2024-02-21T03:50:16;100919.23;;;26.16;100.00
81162;BME280;70638;-33.792;151.032;2024-02-21T03:52:46;100911.71;;;26.20;100.00
81162;BME280;70638;-33.792;151.032;2024-02-21T03:55:16;100912.24;;;26.28;100.00
81162;BME280;70638;-33.792;151.032;2024-02-21T03:57:47;100913.63;;;25.87;100.00
81162;BME280;70638;-33.792;151.032;2024-02-21T04:00:28;100909.83;;;25.83;100.00
81162;BME280;70638;-33.792;151.032;2024-02-21T04:02:48;100905.69;;;25.48;100.00
81162;BME280;70638;-33.792;151.032;2024-02-21T04:05:20;100901.22;;;25.83;100.00
81162;BME280;70638;-33.792;151.032;2024-02-21T04:07:49;100889.10;;;26.06;100.00
81162;BME280;70638;-33.792;151.032;2024-02-21T04:10:22;100894.52;;;25.88;100.00
81162;BME280;70638;-33.792;151.032;2024-02-21T04:12:52;100886.61;;;25.72;100.00
81162;BME280;70638;-33.792;151.032;2024-02-21T04:15:20;100873.16;;;25.99;100.00
81162;BME280;70638;-33.792;151.032;2024-02-21T04:17:55;100867.80;;;25.93;100.00
81162;BME280;70638;-33.792;151.032;2024-02-21T04:20:21;100866.47;;;26.05;100.00
81162;BME280;70638;-33.792;151.032;2024-02-21T04:22:51;100851.02;;;25.87;100.00
81162;BME280;70638;-33.792;151.032;2024-02-21T04:25:22;100854.17;;;25.88;100.00
81162;BME280;70638;-33.792;151.032;2024-02-21T04:27:52;100862.00;;;25.81;100.00
81162;BME280;70638;-33.792;151.032;2024-02-21T04:30:22;100850.81;;;25.83;100.00
81162;BME280;70638;-33.792;151.032;2024-02-21T04:32:53;100843.07;;;25.86;100.00
81162;BME280;70638;-33.792;151.032;2024-02-21T04:35:23;100839.75;;;25.77;100.00
81162;BME280;70638;-33.792;151.032;2024-02-21T04:37:53;100836.17;;;25.68;100.00
81162;BME280;70638;-33.792;151.032;2024-02-21T04:40:24;100837.11;;;25.69;100.00
81162;BME280;70638;-33.792;151.032;2024-02-21T04:42:54;100842.23;;;25.81;100.00
81162;BME280;70638;-33.792;151.032;2024-02-21T04:45:24;100838.18;;;26.02;100.00
81162;BME280;70638;-33.792;151.032;2024-02-21T04:47:55;100840.34;;;26.28;100.00
81162;BME280;70638;-33.792;151.032;2024-02-21T04:50:25;100843.90;;;26.28;100.00
81162;BME280;70638;-33.792;151.032;2024-02-21T04:52:55;100849.14;;;26.05;100.00
81162;BME280;70638;-33.792;151.032;2024-02-21T04:55:25;100844.84;;;25.69;100.00
81162;BME280;70638;-33.792;151.032;2024-02-21T04:57:56;100851.67;;;25.26;100.00
81162;BME280;70638;-33.792;151.032;2024-02-21T05:00:26;100842.97;;;25.34;100.00
81162;BME280;70638;-33.792;151.032;2024-02-21T05:02:56;100841.77;;;25.54;100.00
81162;BME280;70638;-33.792;151.032;2024-02-21T05:05:26;100843.52;;;25.48;100.00
81162;BME280;70638;-33.792;151.032;2024-02-21T05:07:57;100841.05;;;25.48;100.00
81162;BME280;70638;-33.792;151.032;2024-02-21T05:10:33;100834.05;;;25.58;100.00
81162;BME280;70638;-33.792;151.032;2024-02-21T05:13:00;100834.16;;;25.57;100.00
81162;BME280;70638;-33.792;151.032;2024-02-21T05:15:28;100836.52;;;25.49;100.00
81162;BME280;70638;-33.792;151.032;2024-02-21T05:17:58;100838.04;;;25.45;100.00
81162;BME280;70638;-33.792;151.032;2024-02-21T05:20:29;100833.41;;;25.59;100.00
81162;BME280;70638;-33.792;151.032;2024-02-21T05:22:59;100831.68;;;25.71;100.00
81162;BME280;70638;-33.792;151.032;2024-02-21T05:25:29;100826.37;;;25.65;100.00
81162;BME280;70638;-33.792;151.032;2024-02-21T05:28:05;100822.78;;;25.67;100.00
81162;BME280;70638;-33.792;151.032;2024-02-21T05:30:31;100819.62;;;25.64;100.00
81162;BME280;70638;-33.792;151.032;2024-02-21T05:33:04;100830.70;;;25.48;100.00
81162;BME280;70638;-33.792;151.032;2024-02-21T05:35:32;100817.17;;;25.52;100.00
81162;BME280;70638;-33.792;151.032;2024-02-21T05:38:02;100819.92;;;25.72;100.00
81162;BME280;70638;-33.792;151.032;2024-02-21T05:40:33;100822.33;;;25.53;100.00
81162;BME280;70638;-33.792;151.032;2024-02-21T05:43:06;100822.45;;;25.57;100.00
81162;BME280;70638;-33.792;151.032;2024-02-21T05:45:34;100829.10;;;25.39;100.00
81162;BME280;70638;-33.792;151.032;2024-02-21T05:48:05;100825.23;;;25.49;100.00
81162;BME280;70638;-33.792;151.032;2024-02-21T05:50:35;100822.47;;;25.67;100.00
81162;BME280;70638;-33.792;151.032;2024-02-21T05:53:06;100827.39;;;25.54;100.00
81162;BME280;70638;-33.792;151.032;2024-02-21T05:55:35;100826.84;;;25.45;100.00
81162;BME280;70638;-33.792;151.032;2024-02-21T05:58:06;100819.58;;;25.36;100.00
81162;BME280;70638;-33.792;151.032;2024-02-21T06:00:37;100822.53;;;25.30;100.00
81162;BME280;70638;-33.792;151.032;2024-02-21T06:03:07;100822.59;;;25.29;100.00
81162;BME280;70638;-33.792;151.032;2024-02-21T06:05:38;100829.87;;;25.52;100.00
81162;BME280;70638;-33.792;151.032;2024-02-21T06:08:08;100819.25;;;25.46;100.00
81162;BME280;70638;-33.792;151.032;2024-02-21T06:10:38;100820.19;;;25.62;100.00
81162;BME280;70638;-33.792;151.032;2024-02-21T06:13:12;100820.70;;;25.72;100.00
81162;BME280;70638;-33.792;151.032;2024-02-21T06:15:39;100823.94;;;25.68;100.00
81162;BME280;70638;-33.792;151.032;2024-02-21T06:18:12;100831.29;;;25.58;100.00
81162;BME280;70638;-33.792;151.032;2024-02-21T06:20:43;100831.19;;;25.31;100.00
81162;BME280;70638;-33.792;151.032;2024-02-21T06:23:18;100823.40;;;25.15;100.00
81162;BME280;70638;-33.792;151.032;2024-02-21T06:25:41;100823.97;;;25.13;100.00
81162;BME280;70638;-33.792;151.032;2024-02-21T06:28:20;100822.61;;;25.16;100.00
81162;BME280;70638;-33.792;151.032;2024-02-21T06:30:42;100830.05;;;25.13;100.00
81162;BME280;70638;-33.792;151.032;2024-02-21T06:33:13;100827.58;;;24.95;100.00
81162;BME280;70638;-33.792;151.032;2024-02-21T06:35:48;100835.51;;;24.99;100.00
81162;BME280;70638;-33.792;151.032;2024-02-21T06:38:14;100834.55;;;24.89;100.00
81162;BME280;70638;-33.792;151.032;2024-02-21T06:40:45;100837.55;;;24.76;100.00
81162;BME280;70638;-33.792;151.032;2024-02-21T06:43:24;100841.44;;;24.65;100.00
81162;BME280;70638;-33.792;151.032;2024-02-21T06:45:45;100838.28;;;24.70;100.00
81162;BME280;70638;-33.792;151.032;2024-02-21T06:48:15;100834.86;;;24.77;100.00
81162;BME280;70638;-33.792;151.032;2024-02-21T06:50:46;100827.94;;;24.70;100.00
81162;BME280;70638;-33.792;151.032;2024-02-21T06:53:16;100822.47;;;24.69;100.00
81162;BME280;70638;-33.792;151.032;2024-02-21T06:55:49;100817.02;;;24.62;100.00
81162;BME280;70638;-33.792;151.032;2024-02-21T06:58:22;100816.00;;;24.58;100.00
81162;BME280;70638;-33.792;151.032;2024-02-21T07:00:46;100824.33;;;24.57;100.00
81162;BME280;70638;-33.792;151.032;2024-02-21T07:03:22;100835.08;;;24.50;100.00
81162;BME280;70638;-33.792;151.032;2024-02-21T07:05:48;100835.19;;;24.38;100.00
81162;BME280;70638;-33.792;151.032;2024-02-21T07:08:20;100836.29;;;24.38;100.00
81162;BME280;70638;-33.792;151.032;2024-02-21T07:10:49;100838.47;;;24.34;100.00
81162;BME280;70638;-33.792;151.032;2024-02-21T07:13:20;100838.30;;;24.34;100.00
81162;BME280;70638;-33.792;151.032;2024-02-21T07:15:49;100839.14;;;24.43;100.00
81162;BME280;70638;-33.792;151.032;2024-02-21T07:18:23;100830.91;;;24.37;100.00
81162;BME280;70638;-33.792;151.032;2024-02-21T07:20:58;100833.17;;;24.45;100.00
81162;BME280;70638;-33.792;151.032;2024-02-21T07:23:20;100833.75;;;24.42;100.00
81162;BME280;70638;-33.792;151.032;2024-02-21T07:25:51;100834.64;;;24.39;100.00
81162;BME280;70638;-33.792;151.032;2024-02-21T07:28:21;100837.87;;;24.40;100.00
81162;BME280;70638;-33.792;151.032;2024-02-21T07:30:51;100839.27;;;24.42;100.00
81162;BME280;70638;-33.792;151.032;2024-02-21T07:33:22;100841.49;;;24.37;100.00
81162;BME280;70638;-33.792;151.032;2024-02-21T07:35:52;100846.65;;;24.37;100.00
81162;BME280;70638;-33.792;151.032;2024-02-21T07:38:22;100849.84;;;24.31;100.00
81162;BME280;70638;-33.792;151.032;2024-02-21T07:41:05;100850.01;;;24.25;100.00
81162;BME280;70638;-33.792;151.032;2024-02-21T07:43:25;100850.43;;;24.25;100.00
81162;BME280;70638;-33.792;151.032;2024-02-21T07:45:55;100850.44;;;24.24;100.00
81162;BME280;70638;-33.792;151.032;2024-02-21T07:48:27;100851.90;;;24.22;100.00
81162;BME280;70638;-33.792;151.032;2024-02-21T07:50:55;100854.38;;;24.10;100.00
81162;BME280;70638;-33.792;151.032;2024-02-21T07:53:25;100858.25;;;24.02;100.00
81162;BME280;70638;-33.792;151.032;2024-02-21T07:55:56;100860.81;;;23.87;100.00
81162;BME280;70638;-33.792;151.032;2024-02-21T07:58:26;100855.56;;;23.78;100.00
81162;BME280;70638;-33.792;151.032;2024-02-21T08:00:56;100859.03;;;23.69;100.00
81162;BME280;70638;-33.792;151.032;2024-02-21T08:03:28;100866.61;;;23.72;100.00
81162;BME280;70638;-33.792;151.032;2024-02-21T08:05:57;100867.39;;;23.68;100.00
81162;BME280;70638;-33.792;151.032;2024-02-21T08:08:30;100870.55;;;23.66;100.00
81162;BME280;70638;-33.792;151.032;2024-02-21T08:11:06;100872.42;;;23.62;100.00
81162;BME280;70638;-33.792;151.032;2024-02-21T08:13:28;100871.82;;;23.53;100.00
81162;BME280;70638;-33.792;151.032;2024-02-21T08:15:59;100879.70;;;23.50;100.00
81162;BME280;70638;-33.792;151.032;2024-02-21T08:18:29;100874.82;;;23.46;100.00
81162;BME280;70638;-33.792;151.032;2024-02-21T08:20:59;100875.80;;;23.39;100.00
81162;BME280;70638;-33.792;151.032;2024-02-21T08:23:53;100877.62;;;23.31;100.00
81162;BME280;70638;-33.792;151.032;2024-02-21T08:27:10;100890.40;;;23.28;100.00
81162;BME280;70638;-33.792;151.032;2024-02-21T08:28:31;100894.97;;;23.24;100.00
81162;BME280;70638;-33.792;151.032;2024-02-21T08:31:01;100905.19;;;23.19;100.00
81162;BME280;70638;-33.792;151.032;2024-02-21T08:33:32;100908.14;;;23.18;100.00
81162;BME280;70638;-33.792;151.032;2024-02-21T08:36:02;100910.65;;;23.14;100.00
81162;BME280;70638;-33.792;151.032;2024-02-21T08:38:32;100909.41;;;23.15;100.00
81162;BME280;70638;-33.792;151.032;2024-02-21T08:41:02;100905.81;;;23.08;100.00
81162;BME280;70638;-33.792;151.032;2024-02-21T08:43:37;100911.22;;;22.95;100.00
81162;BME280;70638;-33.792;151.032;2024-02-21T08:46:03;100908.90;;;22.88;100.00
81162;BME280;70638;-33.792;151.032;2024-02-21T08:48:34;100913.53;;;22.84;100.00
81162;BME280;70638;-33.792;151.032;2024-02-21T08:51:04;100908.75;;;22.72;100.00
81162;BME280;70638;-33.792;151.032;2024-02-21T08:53:35;100910.73;;;22.64;100.00
81162;BME280;70638;-33.792;151.032;2024-02-21T08:56:06;100913.92;;;22.59;100.00
81162;BME280;70638;-33.792;151.032;2024-02-21T08:58:40;100911.54;;;22.58;100.00
81162;BME280;70638;-33.792;151.032;2024-02-21T09:01:08;100913.55;;;22.56;100.00
81162;BME280;70638;-33.792;151.032;2024-02-21T09:03:39;100914.66;;;22.52;100.00
81162;BME280;70638;-33.792;151.032;2024-02-21T09:06:09;100920.73;;;22.45;100.00
81162;BME280;70638;-33.792;151.032;2024-02-21T09:08:38;100924.64;;;22.38;100.00
81162;BME280;70638;-33.792;151.032;2024-02-21T09:11:09;100930.20;;;22.30;100.00
81162;BME280;70638;-33.792;151.032;2024-02-21T09:13:39;100939.48;;;22.23;100.00
81162;BME280;70638;-33.792;151.032;2024-02-21T09:16:09;100941.84;;;22.15;100.00
81162;BME280;70638;-33.792;151.032;2024-02-21T09:18:46;100947.84;;;22.15;100.00
81162;BME280;70638;-33.792;151.032;2024-02-21T09:21:13;100944.05;;;22.18;100.00
81162;BME280;70638;-33.792;151.032;2024-02-21T09:23:42;100953.46;;;22.17;100.00
81162;BME280;70638;-33.792;151.032;2024-02-21T09:26:16;100951.91;;;22.14;100.00
81162;BME280;70638;-33.792;151.032;2024-02-21T09:28:43;100954.79;;;22.10;100.00
81162;BME280;70638;-33.792;151.032;2024-02-21T09:31:13;100953.59;;;22.06;100.00
81162;BME280;70638;-33.792;151.032;2024-02-21T09:33:46;100955.83;;;22.01;100.00
81162;BME280;70638;-33.792;151.032;2024-02-21T09:36:21;100958.62;;;21.98;100.00
81162;BME280;70638;-33.792;151.032;2024-02-21T09:38:46;100961.34;;;21.95;100.00
81162;BME280;70638;-33.792;151.032;2024-02-21T09:41:27;100965.98;;;21.89;100.00
81162;BME280;70638;-33.792;151.032;2024-02-21T09:43:45;100975.44;;;21.86;100.00
81162;BME280;70638;-33.792;151.032;2024-02-21T09:46:19;100978.36;;;21.82;100.00
81162;BME280;70638;-33.792;151.032;2024-02-21T09:51:24;100991.50;;;21.74;100.00
81162;BME280;70638;-33.792;151.032;2024-02-21T09:53:48;100995.77;;;21.75;100.00
81162;BME280;70638;-33.792;151.032;2024-02-21T09:56:19;100993.91;;;21.73;100.00
81162;BME280;70638;-33.792;151.032;2024-02-21T09:58:52;100999.70;;;21.75;100.00
81162;BME280;70638;-33.792;151.032;2024-02-21T10:01:19;101001.64;;;21.75;100.00
81162;BME280;70638;-33.792;151.032;2024-02-21T10:03:49;101009.11;;;21.80;100.00
81162;BME280;70638;-33.792;151.032;2024-02-21T10:06:20;101015.44;;;21.85;100.00
81162;BME280;70638;-33.792;151.032;2024-02-21T10:08:54;101019.09;;;21.87;100.00
81162;BME280;70638;-33.792;151.032;2024-02-21T10:11:24;101021.13;;;21.84;100.00
81162;BME280;70638;-33.792;151.032;2024-02-21T10:13:52;101023.36;;;21.83;100.00
81162;BME280;70638;-33.792;151.032;2024-02-21T10:16:21;101028.08;;;21.86;100.00
81162;BME280;70638;-33.792;151.032;2024-02-21T10:18:54;101029.14;;;21.90;100.00
81162;BME280;70638;-33.792;151.032;2024-02-21T10:21:22;101032.97;;;21.93;100.00
81162;BME280;70638;-33.792;151.032;2024-02-21T10:23:53;101034.52;;;21.92;100.00
81162;BME280;70638;-33.792;151.032;2024-02-21T10:26:23;101040.62;;;21.89;100.00
81162;BME280;70638;-33.792;151.032;2024-02-21T10:28:56;101041.36;;;21.82;100.00
81162;BME280;70638;-33.792;151.032;2024-02-21T10:31:29;101041.02;;;21.75;100.00
81162;BME280;70638;-33.792;151.032;2024-02-21T10:34:00;101042.36;;;21.67;100.00
81162;BME280;70638;-33.792;151.032;2024-02-21T10:36:24;101044.08;;;21.61;100.00
81162;BME280;70638;-33.792;151.032;2024-02-21T10:38:56;101041.25;;;21.57;100.00
81162;BME280;70638;-33.792;151.032;2024-02-21T10:41:24;101040.89;;;21.52;100.00
81162;BME280;70638;-33.792;151.032;2024-02-21T10:44:05;101040.31;;;21.45;100.00
81162;BME280;70638;-33.792;151.032;2024-02-21T10:46:25;101044.24;;;21.44;100.00
81162;BME280;70638;-33.792;151.032;2024-02-21T10:49:21;101043.16;;;21.42;100.00
81162;BME280;70638;-33.792;151.032;2024-02-21T10:51:28;101039.23;;;21.41;100.00
81162;BME280;70638;-33.792;151.032;2024-02-21T10:54:13;101040.91;;;21.35;100.00
81162;BME280;70638;-33.792;151.032;2024-02-21T10:56:29;101036.53;;;21.26;100.00
81162;BME280;70638;-33.792;151.032;2024-02-21T10:59:02;101028.73;;;21.19;100.00
81162;BME280;70638;-33.792;151.032;2024-02-21T11:01:31;101037.55;;;21.13;100.00
81162;BME280;70638;-33.792;151.032;2024-02-21T11:04:06;101047.05;;;21.06;100.00
81162;BME280;70638;-33.792;151.032;2024-02-21T11:06:37;101048.34;;;21.05;100.00
81162;BME280;70638;-33.792;151.032;2024-02-21T11:09:01;101051.09;;;20.99;100.00
81162;BME280;70638;-33.792;151.032;2024-02-21T11:11:35;101052.02;;;20.92;100.00
81162;BME280;70638;-33.792;151.032;2024-02-21T11:14:10;101053.30;;;20.88;100.00
81162;BME280;70638;-33.792;151.032;2024-02-21T11:16:35;101048.61;;;20.85;100.00
81162;BME280;70638;-33.792;151.032;2024-02-21T11:19:21;101048.56;;;20.83;100.00
81162;BME280;70638;-33.792;151.032;2024-02-21T11:21:36;101056.44;;;20.79;100.00
81162;BME280;70638;-33.792;151.032;2024-02-21T11:24:05;101056.27;;;20.73;100.00
81162;BME280;70638;-33.792;151.032;2024-02-21T11:26:37;101053.62;;;20.67;100.00
81162;BME280;70638;-33.792;151.032;2024-02-21T11:29:11;101052.21;;;20.62;100.00
81162;BME280;70638;-33.792;151.032;2024-02-21T11:31:45;101058.51;;;20.58;100.00
81162;BME280;70638;-33.792;151.032;2024-02-21T11:34:08;101065.52;;;20.57;100.00
81162;BME280;70638;-33.792;151.032;2024-02-21T11:36:36;101063.39;;;20.52;100.00
81162;BME280;70638;-33.792;151.032;2024-02-21T11:39:07;101067.00;;;20.51;100.00
81162;BME280;70638;-33.792;151.032;2024-02-21T11:41:37;101069.39;;;20.54;100.00
81162;BME280;70638;-33.792;151.032;2024-02-21T11:44:07;101074.06;;;20.57;100.00
81162;BME280;70638;-33.792;151.032;2024-02-21T11:46:38;101075.95;;;20.55;100.00
81162;BME280;70638;-33.792;151.032;2024-02-21T11:49:15;101076.31;;;20.54;100.00
81162;BME280;70638;-33.792;151.032;2024-02-21T11:51:39;101071.59;;;20.53;100.00
81162;BME280;70638;-33.792;151.032;2024-02-21T11:54:12;101072.38;;;20.56;100.00
81162;BME280;70638;-33.792;151.032;2024-02-21T11:56:43;101068.14;;;20.57;100.00
81162;BME280;70638;-33.792;151.032;2024-02-21T11:59:10;101064.28;;;20.61;100.00
81162;BME280;70638;-33.792;151.032;2024-02-21T12:01:46;101060.57;;;20.63;100.00
81162;BME280;70638;-33.792;151.032;2024-02-21T12:04:11;101062.91;;;20.60;100.00
81162;BME280;70638;-33.792;151.032;2024-02-21T12:06:42;101062.20;;;20.62;100.00
81162;BME280;70638;-33.792;151.032;2024-02-21T12:09:15;101060.94;;;20.60;100.00
81162;BME280;70638;-33.792;151.032;2024-02-21T12:11:42;101053.75;;;20.52;100.00
81162;BME280;70638;-33.792;151.032;2024-02-21T12:14:19;101054.07;;;20.46;100.00
81162;BME280;70638;-33.792;151.032;2024-02-21T12:16:45;101054.41;;;20.45;100.00
81162;BME280;70638;-33.792;151.032;2024-02-21T12:19:14;101054.65;;;20.48;100.00
81162;BME280;70638;-33.792;151.032;2024-02-21T12:21:44;101052.88;;;20.52;100.00
81162;BME280;70638;-33.792;151.032;2024-02-21T12:24:15;101060.26;;;20.54;100.00
81162;BME280;70638;-33.792;151.032;2024-02-21T12:26:46;101061.69;;;20.52;100.00
81162;BME280;70638;-33.792;151.032;2024-02-21T12:29:15;101058.25;;;20.57;100.00